createdAt,value
2023-02-24T00:01:52.715Z,100088.31
2023-02-24T00:04:21.140Z,100077.81
2023-02-24T00:06:48.819Z,100076.25
2023-02-24T00:09:19.813Z,100078.78
2023-02-24T00:11:55.945Z,100066.38
2023-02-24T00:14:25.030Z,100065.56
2023-02-24T00:16:53.440Z,100054.09
2023-02-24T00:19:23.966Z,100060.94
2023-02-24T00:21:52.078Z,100059.97
2023-02-24T00:24:19.428Z,100060.87
2023-02-24T00:26:46.492Z,100065.38
2023-02-24T00:29:16.337Z,100054.91
2023-02-24T00:31:43.454Z,100052.72
2023-02-24T00:34:12.895Z,100044.13
2023-02-24T00:36:40.209Z,100053.09
2023-02-24T00:39:09.946Z,100048.88
2023-02-24T00:41:43.183Z,100044.31
2023-02-24T00:44:14.983Z,100038.97
2023-02-24T00:46:47.338Z,100039.22
2023-02-24T00:49:27.443Z,100031.06
2023-02-24T00:51:54.574Z,100020.69
2023-02-24T00:54:25.604Z,100026.00
2023-02-24T00:56:52.630Z,100021.22
2023-02-24T00:59:24.344Z,100030.56
2023-02-24T01:02:07.284Z,100011.59
2023-02-24T01:04:34.944Z,100001.69
2023-02-24T01:07:02.199Z,100005.03
2023-02-24T01:09:31.720Z,100000.13
2023-02-24T01:12:17.490Z,99998.34
2023-02-24T01:14:47.939Z,99996.56
2023-02-24T01:17:16.253Z,99997.25
2023-02-24T01:19:44.489Z,99988.44
2023-02-24T01:22:15.717Z,99987.53
2023-02-24T01:24:44.406Z,99982.50
2023-02-24T01:27:13.565Z,99976.47
2023-02-24T01:29:41.664Z,99973.28
2023-02-24T01:32:17.484Z,99971.66
2023-02-24T01:34:44.967Z,99967.97
2023-02-24T01:37:16.737Z,99963.87
2023-02-24T01:39:45.327Z,99957.66
2023-02-24T01:42:19.893Z,99953.09
2023-02-24T01:44:47.004Z,99960.12
2023-02-24T01:47:16.663Z,99946.97
2023-02-24T01:49:48.206Z,99943.41
2023-02-24T01:52:23.821Z,99938.16
2023-02-24T01:54:55.361Z,99942.63
2023-02-24T01:57:26.225Z,99943.28
2023-02-24T02:00:02.300Z,99940.63
2023-02-24T02:02:29.802Z,99941.31
2023-02-24T02:05:06.023Z,99937.09
2023-02-24T02:07:33.405Z,99937.75
2023-02-24T02:10:04.525Z,99935.91
2023-02-24T02:12:37.280Z,99934.91
2023-02-24T02:15:06.554Z,99932.87
2023-02-24T02:17:37.151Z,99936.78
2023-02-24T02:20:16.353Z,99925.75
2023-02-24T02:23:01.606Z,99930.50
2023-02-24T02:26:00.871Z,99938.22
2023-02-24T02:28:54.296Z,99932.50
2023-02-24T02:31:29.246Z,99926.38
2023-02-24T02:34:05.743Z,99924.22
2023-02-24T02:37:00.848Z,99922.25
2023-02-24T02:39:37.222Z,99919.91
2023-02-24T02:42:19.582Z,99923.19
2023-02-24T02:45:05.545Z,99916.66
2023-02-24T02:47:41.515Z,99921.53
2023-02-24T02:50:20.288Z,99913.47
2023-02-24T02:52:54.278Z,99918.31
2023-02-24T02:55:56.629Z,99922.28
2023-02-24T02:58:35.425Z,99918.94
2023-02-24T03:01:04.701Z,99928.91
2023-02-24T03:03:54.284Z,99918.59
2023-02-24T03:06:32.277Z,99913.69
2023-02-24T03:09:16.537Z,99909.41
2023-02-24T03:11:54.153Z,99913.47
2023-02-24T03:14:26.897Z,99899.25
2023-02-24T03:16:56.113Z,99908.84
2023-02-24T03:19:37.918Z,99915.78
2023-02-24T03:22:14.297Z,99916.25
2023-02-24T03:24:44.762Z,99914.16
2023-02-24T03:27:28.677Z,99910.28
2023-02-24T03:30:13.201Z,99916.69
2023-02-24T03:33:02.864Z,99910.50
2023-02-24T03:35:34.502Z,99909.09
2023-02-24T03:38:01.809Z,99902.37
2023-02-24T03:40:30.287Z,99903.16
2023-02-24T03:43:09.288Z,99906.28
2023-02-24T03:45:38.916Z,99905.12
2023-02-24T03:48:08.424Z,99905.12
2023-02-24T03:50:38.334Z,99905.97
2023-02-24T03:53:23.682Z,99904.50
2023-02-24T03:56:03.764Z,99912.28
2023-02-24T03:58:58.196Z,99903.50
2023-02-24T04:01:58.157Z,99903.41
2023-02-24T04:04:47.007Z,99908.25
2023-02-24T04:07:23.995Z,99903.41
2023-02-24T04:10:02.938Z,99900.25
2023-02-24T04:12:32.389Z,99899.22
2023-02-24T04:15:09.391Z,99896.69
2023-02-24T04:18:03.560Z,99885.69
2023-02-24T04:20:34.430Z,99894.28
2023-02-24T04:23:10.847Z,99888.31
2023-02-24T04:25:40.648Z,99887.59
2023-02-24T04:28:10.733Z,99894.09
2023-02-24T04:30:42.760Z,99879.41
2023-02-24T04:33:10.331Z,99876.72
2023-02-24T04:35:38.118Z,99872.44
2023-02-24T04:38:05.597Z,99872.84
2023-02-24T04:40:32.669Z,99872.06
2023-02-24T04:42:59.629Z,99868.34
2023-02-24T04:45:29.496Z,99861.16
2023-02-24T04:48:01.233Z,99854.72
2023-02-24T04:50:34.826Z,99856.25
2023-02-24T04:53:10.333Z,99865.56
2023-02-24T04:55:40.818Z,99861.47
2023-02-24T04:58:11.956Z,99861.16
2023-02-24T05:00:41.778Z,99852.19
2023-02-24T05:03:11.196Z,99846.91
2023-02-24T05:05:38.572Z,99840.84
2023-02-24T05:08:11.195Z,99837.06
2023-02-24T05:10:49.723Z,99838.88
2023-02-24T05:13:19.999Z,99831.13
2023-02-24T05:15:48.306Z,99829.22
2023-02-24T05:18:26.143Z,99835.56
2023-02-24T05:21:13.968Z,99827.88
2023-02-24T05:23:46.150Z,99825.03
2023-02-24T05:26:19.168Z,99818.87
2023-02-24T05:28:52.412Z,99829.53
2023-02-24T05:31:26.968Z,99819.94
2023-02-24T05:34:04.531Z,99824.38
2023-02-24T05:36:40.438Z,99831.22
2023-02-24T05:39:09.743Z,99825.16
2023-02-24T05:41:41.878Z,99818.94
2023-02-24T05:44:12.857Z,99824.09
2023-02-24T05:46:44.827Z,99817.22
2023-02-24T05:49:28.831Z,99808.47
2023-02-24T05:52:00.409Z,99805.53
2023-02-24T05:54:31.380Z,99806.69
2023-02-24T05:57:12.213Z,99804.91
2023-02-24T05:59:43.644Z,99816.38
2023-02-24T06:02:16.106Z,99812.53
2023-02-24T06:04:51.489Z,99806.75
2023-02-24T06:07:28.135Z,99811.72
2023-02-24T06:09:58.022Z,99813.66
2023-02-24T06:12:27.504Z,99814.31
2023-02-24T06:14:54.910Z,99816.91
2023-02-24T06:17:23.108Z,99822.47
2023-02-24T06:19:52.499Z,99831.34
2023-02-24T06:22:23.179Z,99825.19
2023-02-24T06:24:50.708Z,99823.00
2023-02-24T06:27:21.914Z,99827.13
2023-02-24T06:29:51.154Z,99818.31
2023-02-24T06:32:24.142Z,99827.34
2023-02-24T06:34:52.101Z,99822.12
2023-02-24T06:37:23.421Z,99828.72
2023-02-24T06:39:50.907Z,99819.81
2023-02-24T06:42:35.876Z,99820.88
2023-02-24T06:45:25.903Z,99828.94
2023-02-24T06:52:26.154Z,99821.47
2023-02-24T06:54:57.990Z,99813.00
2023-02-24T06:57:25.614Z,99816.56
2023-02-24T06:59:53.132Z,99816.31
2023-02-24T07:02:20.478Z,99811.56
2023-02-24T07:04:47.913Z,99814.09
2023-02-24T07:07:19.151Z,99813.19
2023-02-24T07:09:46.338Z,99803.50
2023-02-24T07:12:13.524Z,99801.59
2023-02-24T07:14:41.082Z,99796.13
2023-02-24T07:17:08.939Z,99795.47
2023-02-24T07:19:39.481Z,99794.19
2023-02-24T07:22:12.831Z,99788.78
2023-02-24T07:24:52.441Z,99786.97
2023-02-24T07:27:29.336Z,99795.13
2023-02-24T07:29:59.644Z,99796.84
2023-02-24T07:32:26.846Z,99792.56
2023-02-24T07:34:53.970Z,99785.88
2023-02-24T07:37:21.491Z,99782.53
2023-02-24T07:39:50.007Z,99786.03
2023-02-24T07:42:22.889Z,99789.50
2023-02-24T07:44:50.351Z,99787.97
2023-02-24T07:47:17.587Z,99785.81
2023-02-24T07:49:45.804Z,99784.28
2023-02-24T07:52:20.701Z,99778.56
2023-02-24T07:54:56.056Z,99780.06
2023-02-24T07:57:25.500Z,99779.72
2023-02-24T07:59:55.760Z,99774.31
2023-02-24T08:02:27.374Z,99773.22
2023-02-24T08:04:58.481Z,99776.03
2023-02-24T08:07:35.465Z,99778.47
2023-02-24T08:10:24.545Z,99780.78
2023-02-24T08:13:00.573Z,99770.78
2023-02-24T08:15:34.808Z,99765.50
2023-02-24T08:18:12.766Z,99769.97
2023-02-24T08:21:04.438Z,99771.81
2023-02-24T08:24:11.083Z,99754.16
2023-02-24T08:27:20.662Z,99763.97
2023-02-24T08:30:03.302Z,99752.28
2023-02-24T08:32:46.190Z,99755.97
2023-02-24T08:35:27.509Z,99756.72
2023-02-24T08:37:58.163Z,99752.31
2023-02-24T08:40:49.517Z,99759.59
2023-02-24T08:43:37.861Z,99752.41
2023-02-24T08:46:14.031Z,99754.66
2023-02-24T08:48:46.857Z,99754.00
2023-02-24T08:51:25.418Z,99744.94
2023-02-24T08:54:15.759Z,99745.19
2023-02-24T08:57:01.410Z,99748.44
2023-02-24T09:01:15.445Z,99746.62
2023-02-24T09:07:43.601Z,99741.44
2023-02-24T09:13:38.791Z,99717.28
2023-02-24T09:16:06.730Z,99716.59
2023-02-24T09:18:38.644Z,99711.94
2023-02-24T09:21:44.007Z,99709.56
2023-02-24T09:24:21.596Z,99704.91
2023-02-24T09:26:51.734Z,99696.25
2023-02-24T09:29:36.512Z,99700.91
2023-02-24T09:32:17.253Z,99698.00
2023-02-24T09:34:51.214Z,99696.78
2023-02-24T09:37:27.739Z,99691.53
2023-02-24T09:39:58.071Z,99678.63
2023-02-24T09:42:53.071Z,99681.72
2023-02-24T09:45:46.391Z,99684.97
2023-02-24T09:48:23.957Z,99681.81
2023-02-24T09:51:08.445Z,99674.66
2023-02-24T09:53:41.736Z,99675.19
2023-02-24T09:56:41.408Z,99674.59
2023-02-24T09:59:11.964Z,99663.47
2023-02-24T10:01:51.120Z,99662.25
2023-02-24T10:04:53.588Z,99657.72
2023-02-24T10:07:38.664Z,99651.37
2023-02-24T10:10:32.022Z,99641.47
2023-02-24T10:13:37.911Z,99642.00
2023-02-24T10:16:11.224Z,99637.66
2023-02-24T10:18:48.719Z,99645.31
2023-02-24T10:21:59.220Z,99636.38
2023-02-24T10:24:50.206Z,99641.66
2023-02-24T10:27:25.506Z,99627.25
2023-02-24T10:30:28.256Z,99627.28
2023-02-24T10:33:05.673Z,99623.50
2023-02-24T10:35:56.289Z,99605.69
2023-02-24T10:39:12.766Z,99598.31
2023-02-24T10:42:27.246Z,99588.28
2023-02-24T10:45:24.121Z,99580.63
2023-02-24T10:47:59.951Z,99568.16
2023-02-24T10:50:55.042Z,99555.38
2023-02-24T10:53:40.117Z,99547.38
2023-02-24T10:56:28.619Z,99541.09
2023-02-24T10:59:25.297Z,99540.59
2023-02-24T11:02:37.629Z,99533.09
2023-02-24T11:05:37.802Z,99518.34
2023-02-24T11:08:35.192Z,99521.00
2023-02-24T11:11:26.221Z,99521.66
2023-02-24T11:14:35.759Z,99510.84
2023-02-24T11:17:21.820Z,99516.59
2023-02-24T11:19:55.522Z,99497.63
2023-02-24T11:22:28.083Z,99502.28
2023-02-24T11:24:55.036Z,99487.03
2023-02-24T11:27:25.371Z,99468.47
2023-02-24T11:30:15.422Z,99472.03
2023-02-24T11:33:01.646Z,99463.47
2023-02-24T11:35:43.730Z,99452.59
2023-02-24T11:38:43.917Z,99444.69
2023-02-24T11:41:16.794Z,99443.22
2023-02-24T11:43:55.449Z,99438.19
2023-02-24T11:46:40.152Z,99423.31
2023-02-24T11:49:27.280Z,99425.47
2023-02-24T11:51:58.311Z,99418.91
2023-02-24T11:54:26.924Z,99414.72
2023-02-24T11:57:01.639Z,99409.38
2023-02-24T11:59:38.640Z,99405.50
2023-02-24T12:02:14.690Z,99402.00
2023-02-24T12:05:04.852Z,99397.25
2023-02-24T12:07:53.152Z,99382.03
2023-02-24T12:10:41.804Z,99378.44
2023-02-24T12:13:12.206Z,99368.84
2023-02-24T12:15:44.560Z,99360.94
2023-02-24T12:18:34.276Z,99348.53
2023-02-24T12:21:07.870Z,99358.63
2023-02-24T12:23:42.347Z,99347.22
2023-02-24T12:26:24.433Z,99341.47
2023-02-24T12:29:16.462Z,99333.34
2023-02-24T12:31:55.936Z,99332.38
2023-02-24T12:34:35.208Z,99329.84
2023-02-24T12:37:22.536Z,99332.44
2023-02-24T12:40:01.911Z,99329.28
2023-02-24T12:42:35.163Z,99329.44
2023-02-24T12:45:34.970Z,99322.50
2023-02-24T12:48:13.760Z,99322.75
2023-02-24T12:50:59.231Z,99310.78
2023-02-24T12:53:39.433Z,99314.41
2023-02-24T12:56:31.718Z,99311.88
2023-02-24T12:59:05.883Z,99308.44
2023-02-24T13:01:42.322Z,99312.12
2023-02-24T13:04:22.726Z,99315.03
2023-02-24T13:07:15.143Z,99312.59
2023-02-24T13:10:26.060Z,99314.91
2023-02-24T13:13:22.838Z,99299.63
2023-02-24T13:16:11.724Z,99300.47
2023-02-24T13:19:08.273Z,99293.84
2023-02-24T13:21:38.670Z,99288.44
2023-02-24T13:24:27.718Z,99290.09
2023-02-24T13:27:10.357Z,99274.19
2023-02-24T13:29:57.155Z,99281.97
2023-02-24T13:32:33.024Z,99276.63
2023-02-24T13:35:05.663Z,99279.81
2023-02-24T13:37:39.903Z,99270.31
2023-02-24T13:40:19.411Z,99268.78
2023-02-24T13:43:02.252Z,99262.69
2023-02-24T13:45:35.309Z,99263.56
2023-02-24T13:48:37.168Z,99266.25
2023-02-24T13:51:30.980Z,99260.28
2023-02-24T13:54:21.684Z,99267.53
2023-02-24T13:57:33.059Z,99264.56
2023-02-24T14:00:26.406Z,99255.31
2023-02-24T14:02:54.811Z,99245.06
2023-02-24T14:05:36.732Z,99247.88
2023-02-24T14:08:09.462Z,99236.59
2023-02-24T14:10:38.012Z,99241.25
2023-02-24T14:13:15.703Z,99237.31
2023-02-24T14:15:45.481Z,99226.25
2023-02-24T14:18:46.657Z,99231.37
2023-02-24T14:21:37.460Z,99220.12
2023-02-24T14:24:16.254Z,99227.84
2023-02-24T14:26:54.465Z,99218.13
2023-02-24T14:29:43.667Z,99219.97
2023-02-24T14:32:32.400Z,99214.28
2023-02-24T14:35:01.862Z,99204.56
2023-02-24T14:37:31.432Z,99207.78
2023-02-24T14:40:04.310Z,99198.59
2023-02-24T14:42:34.002Z,99192.84
2023-02-24T14:45:28.586Z,99195.59
2023-02-24T14:47:59.732Z,99191.94
2023-02-24T14:50:56.765Z,99184.59
2023-02-24T14:53:30.238Z,99179.97
2023-02-24T14:58:57.593Z,99178.06
2023-02-24T15:01:40.177Z,99175.00
2023-02-24T15:04:39.677Z,99182.06
2023-02-24T15:07:17.583Z,99179.78
2023-02-24T15:09:54.940Z,99172.63
2023-02-24T15:12:51.347Z,99164.56
2023-02-24T15:15:22.558Z,99156.34
2023-02-24T15:18:04.645Z,99170.00
2023-02-24T15:20:37.838Z,99170.09
2023-02-24T15:23:05.976Z,99169.44
2023-02-24T15:25:47.880Z,99175.59
2023-02-24T15:28:35.879Z,99167.31
2023-02-24T15:31:16.276Z,99170.94
2023-02-24T15:33:53.136Z,99177.44
2023-02-24T15:36:25.941Z,99174.28
2023-02-24T15:39:03.505Z,99168.13
2023-02-24T15:41:41.658Z,99166.44
2023-02-24T15:44:30.924Z,99151.28
2023-02-24T15:46:59.536Z,99143.31
2023-02-24T15:49:26.555Z,99148.13
2023-02-24T15:51:55.671Z,99139.91
2023-02-24T15:54:29.592Z,99139.25
2023-02-24T15:57:00.748Z,99143.91
2023-02-24T15:59:29.185Z,99140.78
2023-02-24T16:01:56.247Z,99140.97
2023-02-24T16:04:25.923Z,99133.72
2023-02-24T16:06:56.807Z,99134.47
2023-02-24T16:09:46.531Z,99131.75
2023-02-24T16:12:15.656Z,99133.63
2023-02-24T16:14:43.788Z,99135.88
2023-02-24T16:17:34.257Z,99128.38
2023-02-24T16:20:02.147Z,99123.59
2023-02-24T16:22:29.668Z,99130.66
2023-02-24T16:24:56.663Z,99127.75
2023-02-24T16:27:26.218Z,99132.03
2023-02-24T16:29:53.679Z,99115.81
2023-02-24T16:32:25.956Z,99127.00
2023-02-24T16:34:53.998Z,99121.16
2023-02-24T16:37:28.036Z,99126.69
2023-02-24T16:39:57.849Z,99127.91
2023-02-24T16:42:24.776Z,99130.34
2023-02-24T16:44:51.647Z,99127.38
2023-02-24T16:47:25.452Z,99121.75
2023-02-24T16:49:56.459Z,99122.16
2023-02-24T16:52:25.136Z,99120.38
2023-02-24T16:54:52.193Z,99115.50
2023-02-24T16:57:21.161Z,99121.00
2023-02-24T16:59:48.056Z,99116.59
2023-02-24T17:02:24.033Z,99107.13
2023-02-24T17:04:50.994Z,99106.31
2023-02-24T17:07:20.672Z,99112.41
2023-02-24T17:09:47.456Z,99111.69
2023-02-24T17:12:17.496Z,99116.84
2023-02-24T17:14:44.499Z,99120.69
2023-02-24T17:17:11.888Z,99117.31
2023-02-24T17:19:39.471Z,99127.00
2023-02-24T17:22:06.437Z,99125.22
2023-02-24T17:24:33.463Z,99114.75
2023-02-24T17:27:01.272Z,99118.28
2023-02-24T17:29:28.389Z,99121.16
2023-02-24T17:31:55.625Z,99124.97
2023-02-24T17:34:24.464Z,99120.59
2023-02-24T17:36:51.678Z,99121.91
2023-02-24T17:39:18.787Z,99120.69
2023-02-24T17:41:45.942Z,99115.88
2023-02-24T17:44:12.984Z,99116.00
2023-02-24T17:46:40.155Z,99114.59
2023-02-24T17:49:07.313Z,99114.19
2023-02-24T17:51:34.275Z,99112.13
2023-02-24T17:54:03.249Z,99113.28
2023-02-24T17:56:30.291Z,99112.78
2023-02-24T17:59:01.174Z,99106.84
2023-02-24T18:01:28.423Z,99115.44
2023-02-24T18:03:57.824Z,99117.16
2023-02-24T18:06:25.624Z,99110.19
2023-02-24T18:08:52.615Z,99103.31
2023-02-24T18:11:22.427Z,99101.97
2023-02-24T18:13:52.838Z,99094.66
2023-02-24T18:16:20.257Z,99086.91
2023-02-24T18:18:47.581Z,99085.91
2023-02-24T18:21:14.529Z,99088.69
2023-02-24T18:23:41.685Z,99082.41
2023-02-24T18:26:11.009Z,99087.09
2023-02-24T18:28:38.012Z,99077.13
2023-02-24T18:31:19.938Z,99074.09
2023-02-24T18:33:47.164Z,99075.84
2023-02-24T18:36:14.812Z,99068.47
2023-02-24T18:38:42.151Z,99062.66
2023-02-24T18:41:12.112Z,99066.19
2023-02-24T18:43:38.852Z,99065.91
2023-02-24T18:46:08.466Z,99053.41
2023-02-24T18:48:37.829Z,99053.59
2023-02-24T18:51:04.990Z,99053.12
2023-02-24T18:53:37.072Z,99036.06
2023-02-24T18:56:06.940Z,99038.09
2023-02-24T18:58:34.156Z,99037.47
2023-02-24T19:01:01.768Z,99040.53
2023-02-24T19:03:28.772Z,99033.34
2023-02-24T19:05:55.702Z,99019.31
2023-02-24T19:08:22.619Z,99013.91
2023-02-24T19:10:49.512Z,99020.28
2023-02-24T19:13:16.488Z,99017.53
2023-02-24T19:15:44.947Z,99022.59
2023-02-24T19:18:12.014Z,99023.75
2023-02-24T19:20:43.133Z,99034.41
2023-02-24T19:23:10.669Z,99030.94
2023-02-24T19:25:37.714Z,99031.53
2023-02-24T19:28:04.879Z,99036.84
2023-02-24T19:30:32.106Z,99022.38
2023-02-24T19:32:59.209Z,99042.81
2023-02-24T19:35:26.590Z,99030.53
2023-02-24T19:37:53.638Z,99044.59
2023-02-24T19:40:20.878Z,99032.75
2023-02-24T19:42:49.596Z,99022.00
2023-02-24T19:45:17.307Z,99031.88
2023-02-24T19:47:47.112Z,99029.25
2023-02-24T19:50:14.707Z,99030.19
2023-02-24T19:52:43.029Z,99026.81
2023-02-24T19:55:12.572Z,99023.97
2023-02-24T19:57:39.582Z,99032.09
2023-02-24T20:00:07.587Z,99025.28
2023-02-24T20:02:34.521Z,99024.94
2023-02-24T20:05:01.507Z,99029.75
2023-02-24T20:07:28.521Z,99018.69
2023-02-24T20:09:55.555Z,99017.06
2023-02-24T20:12:23.012Z,99017.03
2023-02-24T20:14:51.500Z,99017.87
2023-02-24T20:17:18.557Z,99009.09
2023-02-24T20:19:45.530Z,99013.81
2023-02-24T20:22:12.693Z,99006.84
2023-02-24T20:24:39.580Z,99001.09
2023-02-24T20:27:06.649Z,98997.63
2023-02-24T20:29:35.304Z,99006.00
2023-02-24T20:32:03.732Z,99001.97
2023-02-24T20:34:30.775Z,98995.50
2023-02-24T20:36:57.929Z,99005.91
2023-02-24T20:39:25.077Z,98990.69
2023-02-24T20:41:54.788Z,98990.53
2023-02-24T20:44:21.701Z,98990.78
2023-02-24T20:46:48.729Z,98986.50
2023-02-24T20:49:15.734Z,98977.81
2023-02-24T20:51:43.770Z,98978.59
2023-02-24T20:54:12.690Z,98979.25
2023-02-24T20:56:41.262Z,98979.06
2023-02-24T20:59:17.494Z,98971.78
2023-02-24T21:01:47.607Z,98970.81
2023-02-24T21:04:16.474Z,98961.66
2023-02-24T21:06:43.612Z,98959.00
2023-02-24T21:09:12.217Z,98951.88
2023-02-24T21:11:39.524Z,98947.63
2023-02-24T21:14:07.408Z,98943.91
2023-02-24T21:16:37.819Z,98940.72
2023-02-24T21:19:04.834Z,98945.75
2023-02-24T21:21:31.803Z,98942.91
2023-02-24T21:23:58.674Z,98938.19
2023-02-24T21:26:27.219Z,98943.84
2023-02-24T21:28:57.679Z,98931.41
2023-02-24T21:31:25.799Z,98948.75
2023-02-24T21:33:53.634Z,98928.94
2023-02-24T21:36:23.874Z,98931.34
2023-02-24T21:38:51.386Z,98928.88
2023-02-24T21:41:21.669Z,98923.19
2023-02-24T21:43:52.548Z,98925.50
2023-02-24T21:46:19.582Z,98927.84
2023-02-24T21:48:46.683Z,98925.91
2023-02-24T21:51:14.018Z,98911.56
2023-02-24T21:53:44.589Z,98909.94
2023-02-24T21:56:18.080Z,98906.91
2023-02-24T21:58:47.978Z,98909.88
2023-02-24T22:01:17.143Z,98917.63
2023-02-24T22:03:44.680Z,98908.12
2023-02-24T22:06:14.759Z,98915.25
2023-02-24T22:08:45.678Z,98910.91
2023-02-24T22:11:17.385Z,98906.47
2023-02-24T22:13:45.882Z,98904.09
2023-02-24T22:16:16.349Z,98906.38
2023-02-24T22:18:43.232Z,98907.16
2023-02-24T22:21:12.698Z,98910.03
2023-02-24T22:23:40.454Z,98902.25
2023-02-24T22:26:09.588Z,98891.25
2023-02-24T22:28:39.169Z,98890.88
2023-02-24T22:31:07.643Z,98883.56
2023-02-24T22:33:37.751Z,98889.44
2023-02-24T22:36:06.844Z,98872.06
2023-02-24T22:38:35.484Z,98869.84
2023-02-24T22:41:10.867Z,98866.00
2023-02-24T22:43:37.758Z,98860.28
2023-02-24T22:46:12.327Z,98860.50
2023-02-24T22:48:39.590Z,98856.09
2023-02-24T22:51:08.784Z,98851.19
2023-02-24T22:53:38.992Z,98853.00
2023-02-24T22:56:07.256Z,98848.16
2023-02-24T22:58:34.387Z,98854.75
2023-02-24T23:01:01.422Z,98848.75
2023-02-24T23:03:31.223Z,98843.44
2023-02-24T23:06:03.014Z,98843.09
2023-02-24T23:08:33.182Z,98835.66
2023-02-24T23:11:30.894Z,98840.56
2023-02-24T23:14:01.589Z,98834.91
2023-02-24T23:16:31.931Z,98830.00
2023-02-24T23:19:01.128Z,98831.59
2023-02-24T23:21:39.488Z,98829.59
2023-02-24T23:24:08.415Z,98830.19
2023-02-24T23:26:38.460Z,98830.25
2023-02-24T23:29:06.466Z,98825.19
2023-02-24T23:31:33.840Z,98816.84
2023-02-24T23:34:01.855Z,98825.00
2023-02-24T23:36:28.939Z,98829.53
2023-02-24T23:38:57.567Z,98823.41
2023-02-24T23:41:24.464Z,98822.69
2023-02-24T23:43:51.387Z,98818.47
2023-02-24T23:46:18.352Z,98821.72
2023-02-24T23:48:46.044Z,98817.53
2023-02-24T23:51:14.282Z,98812.78
2023-02-24T23:53:43.737Z,98807.03
2023-02-24T23:56:21.837Z,98811.41
2023-02-24T23:58:54.296Z,98805.03
